Terminal Aerodrome Forecast
Issued by NWS Milwaukee/Sullivan, WI

Home | Current Version | Previous Version | Text Only | Print | Product List | Glossary On
Versions: 1 2 3 4 5 6 7 8 9 10 11 12 13 14 15 16 17 18 19
000
FTUS43 KMKX 241726
TAFMSN
TAF
KMSN 241726Z 2418/2518 20016G26KT P6SM SKC
     FM242100 22013KT P6SM FEW130 FEW250
     FM250000 26009KT P6SM SCT070 BKN090
     FM250100 27010KT P6SM BKN090 BKN130
     FM250600 31012G22KT P6SM FEW200 FEW250
     FM250700 31012KT P6SM FEW200 FEW250
     FM250900 31011G21KT P6SM FEW100 SCT200
     FM251300 30011KT P6SM SCT090=

USA.gov is the U.S. government's official web portal to all federal, state and local government web resources and services.